Time,TemperatureF,DewpointF,PressureIn,WindDirection,WindDirectionDegrees,WindSpeedMPH,WindSpeedGustMPH,Humidity,HourlyPrecipIn,Conditions,Clouds,dailyrainin,SoftwareType,DateUTC
2013-01-20 00:00:00,34.2,20.0,29.91,WNW,289,6.0,21.0,56,0.00,,,0.00,weatherlink.com 1.10,2013-01-20 06:00:00,
2013-01-20 00:15:00,32.8,16.0,29.93,NW,305,7.0,25.0,50,0.00,,,0.00,weatherlink.com 1.10,2013-01-20 06:15:00,
2013-01-20 00:30:00,31.4,16.0,29.95,WNW,303,10.0,23.0,54,0.00,,,0.00,weatherlink.com 1.10,2013-01-20 06:30:00,
2013-01-20 00:45:00,30.3,15.0,29.96,NW,319,4.0,22.0,54,0.00,,,0.00,weatherlink.com 1.10,2013-01-20 06:45:00,
2013-01-20 01:00:00,29.8,15.0,29.98,West,269,5.0,23.0,54,0.00,,,0.00,weatherlink.com 1.10,2013-01-20 07:00:00,
2013-01-20 01:15:00,28.8,14.0,30.00,WSW,251,5.0,21.0,54,0.00,,,0.00,weatherlink.com 1.10,2013-01-20 07:15:00,
2013-01-20 01:30:00,27.8,13.0,30.00,North,11,7.0,27.0,54,0.00,,,0.00,weatherlink.com 1.10,2013-01-20 07:30:00,
2013-01-20 01:45:00,27.2,11.0,30.02,WNW,286,9.0,25.0,51,0.00,,,0.00,weatherlink.com 1.10,2013-01-20 07:45:00,
2013-01-20 02:00:00,26.4,12.0,30.04,NW,304,8.0,20.0,55,0.00,,,0.00,weatherlink.com 1.10,2013-01-20 08:00:00,
2013-01-20 02:15:00,25.7,11.0,30.05,WNW,294,9.0,21.0,53,0.00,,,0.00,weatherlink.com 1.10,2013-01-20 08:15:00,
2013-01-20 02:30:00,25.0,10.0,30.06,WSW,249,4.0,20.0,54,0.00,,,0.00,weatherlink.com 1.10,2013-01-20 08:30:00,
2013-01-20 02:45:00,24.2,9.0,30.07,WNW,290,4.0,16.0,53,0.00,,,0.00,weatherlink.com 1.10,2013-01-20 08:45:00,
2013-01-20 03:00:00,23.5,10.0,30.08,NW,305,1.0,12.0,56,0.00,,,0.00,weatherlink.com 1.10,2013-01-20 09:00:00,
2013-01-20 03:15:00,22.9,10.0,30.09,West,281,3.0,10.0,59,0.00,,,0.00,weatherlink.com 1.10,2013-01-20 09:15:00,
2013-01-20 03:31:00,22.5,11.0,30.11,NNE,15,1.0,15.0,62,0.00,,,0.00,weatherlink.com 1.10,2013-01-20 09:31:00,
2013-01-20 04:01:00,21.4,9.0,30.13,NW,309,2.0,16.0,60,0.00,,,0.00,weatherlink.com 1.10,2013-01-20 10:01:00,
2013-01-20 04:16:00,20.7,9.0,30.14,SW,228,3.0,15.0,61,0.00,,,0.00,weatherlink.com 1.10,2013-01-20 10:16:00,
2013-01-20 04:31:00,20.0,9.0,30.14,West,278,4.0,11.0,62,0.00,,,0.00,weatherlink.com 1.10,2013-01-20 10:31:00,
2013-01-20 04:46:00,19.5,9.0,30.14,West,271,5.0,13.0,63,0.00,,,0.00,weatherlink.com 1.10,2013-01-20 10:46:00,
2013-01-20 05:01:00,19.0,9.0,30.15,NNW,339,1.0,14.0,65,0.00,,,0.00,weatherlink.com 1.10,2013-01-20 11:01:00,
2013-01-20 05:16:00,18.7,9.0,30.16,NW,309,2.0,13.0,67,0.00,,,0.00,weatherlink.com 1.10,2013-01-20 11:16:00,
2013-01-20 05:31:00,18.1,8.0,30.17,West,264,2.0,11.0,66,0.00,,,0.00,weatherlink.com 1.10,2013-01-20 11:31:00,
2013-01-20 05:46:00,17.5,7.0,30.19,WNW,283,2.0,14.0,64,0.00,,,0.00,weatherlink.com 1.10,2013-01-20 11:46:00,
2013-01-20 06:01:00,17.0,7.0,30.20,NE,34,2.0,12.0,65,0.00,,,0.00,weatherlink.com 1.10,2013-01-20 12:01:00,
2013-01-20 06:16:00,16.6,6.0,30.20,West,277,4.0,13.0,63,0.00,,,0.00,weatherlink.com 1.10,2013-01-20 12:16:00,
2013-01-20 06:31:00,16.2,6.0,30.22,WNW,302,5.0,10.0,65,0.00,,,0.00,weatherlink.com 1.10,2013-01-20 12:31:00,
2013-01-20 06:46:00,16.0,6.0,30.21,WNW,291,9.0,10.0,66,0.00,,,0.00,weatherlink.com 1.10,2013-01-20 12:46:00,
2013-01-20 07:01:00,15.8,7.0,30.23,West,277,5.0,11.0,67,0.00,,,0.00,weatherlink.com 1.10,2013-01-20 13:01:00,
2013-01-20 07:16:00,15.5,6.0,30.24,WNW,297,2.0,11.0,67,0.00,,,0.00,weatherlink.com 1.10,2013-01-20 13:16:00,
2013-01-20 07:31:00,15.5,6.0,30.25,West,265,2.0,13.0,67,0.00,,,0.00,weatherlink.com 1.10,2013-01-20 13:31:00,
2013-01-20 07:47:00,16.0,6.0,30.27,NNW,330,3.0,13.0,65,0.00,,,0.00,weatherlink.com 1.10,2013-01-20 13:47:00,
2013-01-20 08:02:00,16.8,7.0,30.27,SSW,198,3.0,12.0,66,0.00,,,0.00,weatherlink.com 1.10,2013-01-20 14:02:00,
2013-01-20 08:32:00,16.6,6.0,30.27,NW,319,7.0,8.0,64,0.00,,,0.00,weatherlink.com 1.10,2013-01-20 14:32:00,
2013-01-20 08:47:00,17.3,7.0,30.28,West,269,2.0,11.0,63,0.00,,,0.00,weatherlink.com 1.10,2013-01-20 14:47:00,
2013-01-20 09:02:00,18.2,7.0,30.28,NW,325,3.0,11.0,63,0.00,,,0.00,weatherlink.com 1.10,2013-01-20 15:02:00,
2013-01-20 09:17:00,18.0,7.0,30.29,NNE,15,9.0,14.0,61,0.00,,,0.00,weatherlink.com 1.10,2013-01-20 15:17:00,
2013-01-20 09:32:00,17.9,7.0,30.29,NNW,337,2.0,12.0,63,0.00,,,0.00,weatherlink.com 1.10,2013-01-20 15:32:00,
2013-01-20 09:47:00,19.4,8.0,30.29,WNW,302,4.0,9.0,61,0.00,,,0.00,weatherlink.com 1.10,2013-01-20 15:47:00,
2013-01-20 10:02:00,19.4,7.0,30.29,West,269,2.0,10.0,59,0.00,,,0.00,weatherlink.com 1.10,2013-01-20 16:02:00,
2013-01-20 10:17:00,20.2,7.0,30.29,NNW,332,1.0,12.0,58,0.00,,,0.00,weatherlink.com 1.10,2013-01-20 16:17:00,
2013-01-20 10:32:00,20.0,6.0,30.30,North,355,3.0,12.0,56,0.00,,,0.00,weatherlink.com 1.10,2013-01-20 16:32:00,
2013-01-20 10:47:00,20.4,7.0,30.29,WNW,295,2.0,9.0,57,0.00,,,0.00,weatherlink.com 1.10,2013-01-20 16:47:00,
2013-01-20 11:02:00,21.5,7.0,30.27,NNW,329,4.0,8.0,53,0.00,,,0.00,weatherlink.com 1.10,2013-01-20 17:02:00,
2013-01-20 11:17:00,21.9,7.0,30.27,WSW,237,5.0,9.0,54,0.00,,,0.00,weatherlink.com 1.10,2013-01-20 17:17:00,
2013-01-20 11:32:00,22.9,8.0,30.26,NW,326,4.0,9.0,53,0.00,,,0.00,weatherlink.com 1.10,2013-01-20 17:32:00,
2013-01-20 11:47:00,23.0,8.0,30.26,SW,236,1.0,8.0,53,0.00,,,0.00,weatherlink.com 1.10,2013-01-20 17:47:00,
2013-01-20 12:02:00,23.1,7.0,30.27,NNW,331,3.0,11.0,50,0.00,,,0.00,weatherlink.com 1.10,2013-01-20 18:02:00,
2013-01-20 12:17:00,22.6,7.0,30.27,WNW,292,0.0,10.0,51,0.00,,,0.00,weatherlink.com 1.10,2013-01-20 18:17:00,
2013-01-20 12:32:00,22.6,7.0,30.26,West,265,5.0,11.0,52,0.00,,,0.00,weatherlink.com 1.10,2013-01-20 18:32:00,
2013-01-20 12:47:00,23.5,8.0,30.26,NNW,328,6.0,11.0,52,0.00,,,0.00,weatherlink.com 1.10,2013-01-20 18:47:00,
2013-01-20 13:02:00,23.4,8.0,30.25,WNW,284,4.0,9.0,52,0.00,,,0.00,weatherlink.com 1.10,2013-01-20 19:02:00,
2013-01-20 13:17:00,24.0,8.0,30.26,North,360,2.0,10.0,50,0.00,,,0.00,weatherlink.com 1.10,2013-01-20 19:17:00,
2013-01-20 13:32:00,23.6,8.0,30.26,West,267,4.0,11.0,52,0.00,,,0.00,weatherlink.com 1.10,2013-01-20 19:32:00,
2013-01-20 13:47:00,23.7,9.0,30.26,WSW,244,1.0,8.0,53,0.00,,,0.00,weatherlink.com 1.10,2013-01-20 19:47:00,
2013-01-20 14:02:00,23.5,7.0,30.26,WNW,294,5.0,10.0,50,0.00,,,0.00,weatherlink.com 1.10,2013-01-20 20:02:00,
2013-01-20 14:17:00,23.1,7.0,30.26,North,355,0.0,10.0,51,0.00,,,0.00,weatherlink.com 1.10,2013-01-20 20:17:00,
2013-01-20 14:32:00,23.3,8.0,30.25,NNW,342,6.0,10.0,51,0.00,,,0.00,weatherlink.com 1.10,2013-01-20 20:32:00,
2013-01-20 14:47:00,23.7,7.0,30.26,SW,228,4.0,10.0,50,0.00,,,0.00,weatherlink.com 1.10,2013-01-20 20:47:00,
2013-01-20 15:02:00,23.3,7.0,30.26,WNW,296,4.0,9.0,50,0.00,,,0.00,weatherlink.com 1.10,2013-01-20 21:02:00,
2013-01-20 15:32:00,22.9,9.0,30.26,WNW,302,0.0,9.0,56,0.00,,,0.00,weatherlink.com 1.10,2013-01-20 21:32:00,
2013-01-20 15:47:00,22.6,7.0,30.26,West,273,6.0,10.0,52,0.00,,,0.00,weatherlink.com 1.10,2013-01-20 21:47:00,
2013-01-20 16:02:00,22.5,8.0,30.26,WSW,253,1.0,8.0,53,0.00,,,0.00,weatherlink.com 1.10,2013-01-20 22:02:00,
2013-01-20 16:17:00,22.2,8.0,30.26,WNW,290,3.0,10.0,54,0.00,,,0.00,weatherlink.com 1.10,2013-01-20 22:17:00,
2013-01-20 16:32:00,21.8,7.0,30.26,WNW,284,3.0,9.0,54,0.00,,,0.00,weatherlink.com 1.10,2013-01-20 22:32:00,
2013-01-20 16:47:00,21.5,8.0,30.26,NW,323,2.0,10.0,56,0.00,,,0.00,weatherlink.com 1.10,2013-01-20 22:47:00,
2013-01-20 17:17:00,21.0,8.0,30.27,NW,314,1.0,7.0,58,0.00,,,0.00,weatherlink.com 1.10,2013-01-20 23:17:00,
2013-01-20 17:32:00,20.9,8.0,30.27,WNW,295,5.0,7.0,58,0.00,,,0.00,weatherlink.com 1.10,2013-01-20 23:32:00,
2013-01-20 17:47:00,20.9,8.0,30.27,WNW,294,0.0,8.0,58,0.00,,,0.00,weatherlink.com 1.10,2013-01-20 23:47:00,
2013-01-20 18:02:00,20.8,8.0,30.27,West,279,1.0,5.0,59,0.00,,,0.00,weatherlink.com 1.10,2013-01-21 00:02:00,
2013-01-20 18:17:00,20.7,8.0,30.27,NW,317,6.0,8.0,59,0.00,,,0.00,weatherlink.com 1.10,2013-01-21 00:17:00,
2013-01-20 18:32:00,20.5,8.0,30.27,NW,324,3.0,7.0,58,0.00,,,0.00,weatherlink.com 1.10,2013-01-21 00:32:00,
2013-01-20 18:47:00,20.2,7.0,30.27,WNW,301,3.0,7.0,57,0.00,,,0.00,weatherlink.com 1.10,2013-01-21 00:47:00,
2013-01-20 19:02:00,19.9,7.0,30.27,NW,314,2.0,10.0,58,0.00,,,0.00,weatherlink.com 1.10,2013-01-21 01:02:00,
2013-01-20 19:17:00,19.7,7.0,30.27,North,355,1.0,7.0,58,0.00,,,0.00,weatherlink.com 1.10,2013-01-21 01:17:00,
2013-01-20 19:32:00,19.6,8.0,30.27,WSW,252,0.0,7.0,61,0.00,,,0.00,weatherlink.com 1.10,2013-01-21 01:32:00,
2013-01-20 19:47:00,19.5,8.0,30.26,NW,318,0.0,7.0,60,0.00,,,0.00,weatherlink.com 1.10,2013-01-21 01:47:00,
2013-01-20 20:02:00,19.5,8.0,30.25,WNW,289,4.0,5.0,60,0.00,,,0.00,weatherlink.com 1.10,2013-01-21 02:02:00,
2013-01-20 20:17:00,19.4,7.0,30.26,NNW,328,0.0,8.0,60,0.00,,,0.00,weatherlink.com 1.10,2013-01-21 02:17:00,
2013-01-20 20:32:00,19.3,7.0,30.25,NNW,333,1.0,7.0,60,0.00,,,0.00,weatherlink.com 1.10,2013-01-21 02:32:00,
2013-01-20 20:47:00,19.0,7.0,30.25,West,281,0.0,8.0,61,0.00,,,0.00,weatherlink.com 1.10,2013-01-21 02:47:00,
2013-01-20 21:02:00,19.0,8.0,30.25,WNW,302,2.0,5.0,62,0.00,,,0.00,weatherlink.com 1.10,2013-01-21 03:02:00,
2013-01-20 21:17:00,19.0,7.0,30.25,West,281,1.0,9.0,61,0.00,,,0.00,weatherlink.com 1.10,2013-01-21 03:17:00,
2013-01-20 21:47:00,18.9,7.0,30.25,NW,308,6.0,8.0,60,0.00,,,0.00,weatherlink.com 1.10,2013-01-21 03:47:00,
2013-01-20 22:02:00,18.8,7.0,30.25,West,279,1.0,7.0,60,0.00,,,0.00,weatherlink.com 1.10,2013-01-21 04:02:00,
2013-01-20 22:17:00,18.8,7.0,30.24,West,279,1.0,8.0,61,0.00,,,0.00,weatherlink.com 1.10,2013-01-21 04:17:00,
2013-01-20 22:32:00,18.8,7.0,30.24,WSW,242,5.0,8.0,59,0.00,,,0.00,weatherlink.com 1.10,2013-01-21 04:32:00,
2013-01-20 22:47:00,18.6,6.0,30.24,WNW,286,4.0,10.0,59,0.00,,,0.00,weatherlink.com 1.10,2013-01-21 04:47:00,
2013-01-20 23:17:00,18.2,6.0,30.23,WNW,296,2.0,6.0,60,0.00,,,0.00,weatherlink.com 1.10,2013-01-21 05:17:00,
2013-01-20 23:32:00,18.1,7.0,30.23,West,281,3.0,5.0,63,0.00,,,0.00,weatherlink.com 1.10,2013-01-21 05:32:00,
2013-01-20 23:47:00,18.0,8.0,30.23,WNW,294,2.0,7.0,64,0.00,,,0.00,weatherlink.com 1.10,2013-01-21 05:47:00,